Pagina principale
METAR-TAF:

METAR-TAF

Aeroporti :

Laupheim, Germania

latitudine: 48-13N, longitudine: 009-55E, altezza: 538 m

Osservazione

Il bollettino è stato emesso 1 ora e 3 minuti fa, alle 16:20 UTC
Vento 9 kt da est/nord-est
Temperature 18°C
Umidità 37%
Pressione 1019 hPa
Visibilità: 9000 m

METAR: ETHL 311620Z AUTO 06009KT 9000 // ////// 18/03 Q1019 ///

Ora: 19:23 (17:23 UTC)


TAF: mancante

Osservazioni e previsioni meteorologiche di più di 4000 aeroporti (messaggi METAR e TAF).

Le stazioni disponibili sono rappresentate dai dischi gialli e rossi sulla carta.

Puntare il mouse per vedere il nome della stazione.

Clicca sopra per visualizzare le osservazioni e previsioni meteorologiche.

Per cambiare la mappa : fare clic sui pulsanti verdi con una croce nera per ingrandire, il pulsante verde con un trattino per diminuire, o sulla freccia verde per le mappe adiacenti.


METAR-TAF: